sensor_id;sensor_type;location;lat;lon;timestamp;P1;durP1;ratioP1;P2;durP2;ratioP2
50781;SDS011;36749;37.428;-121.972;2023-05-07T00:00:49;4.70;;;1.35;;
50781;SDS011;36749;37.428;-121.972;2023-05-07T00:03:16;3.72;;;1.35;;
50781;SDS011;36749;37.428;-121.972;2023-05-07T00:05:42;1.50;;;1.40;;
50781;SDS011;36749;37.428;-121.972;2023-05-07T00:08:08;1.40;;;1.30;;
50781;SDS011;36749;37.428;-121.972;2023-05-07T00:10:35;1.58;;;1.48;;
50781;SDS011;36749;37.428;-121.972;2023-05-07T00:13:01;3.47;;;1.02;;
50781;SDS011;36749;37.428;-121.972;2023-05-07T00:15:27;2.72;;;1.20;;
50781;SDS011;36749;37.428;-121.972;2023-05-07T00:17:53;3.13;;;1.40;;
50781;SDS011;36749;37.428;-121.972;2023-05-07T00:20:19;1.55;;;1.38;;
50781;SDS011;36749;37.428;-121.972;2023-05-07T00:22:46;4.38;;;1.40;;
50781;SDS011;36749;37.428;-121.972;2023-05-07T00:25:12;5.95;;;1.70;;
50781;SDS011;36749;37.428;-121.972;2023-05-07T00:27:38;2.08;;;1.23;;
50781;SDS011;36749;37.428;-121.972;2023-05-07T00:30:04;3.60;;;1.60;;
50781;SDS011;36749;37.428;-121.972;2023-05-07T00:32:31;6.55;;;1.55;;
50781;SDS011;36749;37.428;-121.972;2023-05-07T00:34:57;3.45;;;1.40;;
50781;SDS011;36749;37.428;-121.972;2023-05-07T00:37:24;3.10;;;1.38;;
50781;SDS011;36749;37.428;-121.972;2023-05-07T00:39:50;3.35;;;1.48;;
50781;SDS011;36749;37.428;-121.972;2023-05-07T00:42:16;3.35;;;1.77;;
50781;SDS011;36749;37.428;-121.972;2023-05-07T00:44:43;2.45;;;1.33;;
50781;SDS011;36749;37.428;-121.972;2023-05-07T00:47:09;2.65;;;1.27;;
50781;SDS011;36749;37.428;-121.972;2023-05-07T00:49:41;3.95;;;1.30;;
50781;SDS011;36749;37.428;-121.972;2023-05-07T00:52:11;2.38;;;1.20;;
50781;SDS011;36749;37.428;-121.972;2023-05-07T00:54:40;3.10;;;1.38;;
50781;SDS011;36749;37.428;-121.972;2023-05-07T00:57:06;3.15;;;1.30;;
50781;SDS011;36749;37.428;-121.972;2023-05-07T00:59:32;2.00;;;1.20;;
50781;SDS011;36749;37.428;-121.972;2023-05-07T01:01:59;1.58;;;1.23;;
50781;SDS011;36749;37.428;-121.972;2023-05-07T01:04:25;3.53;;;1.20;;
50781;SDS011;36749;37.428;-121.972;2023-05-07T01:06:52;1.85;;;1.10;;
50781;SDS011;36749;37.428;-121.972;2023-05-07T01:09:19;3.05;;;1.67;;
50781;SDS011;36749;37.428;-121.972;2023-05-07T01:11:47;2.15;;;1.15;;
50781;SDS011;36749;37.428;-121.972;2023-05-07T01:14:13;1.48;;;1.38;;
50781;SDS011;36749;37.428;-121.972;2023-05-07T01:16:39;6.10;;;1.48;;
50781;SDS011;36749;37.428;-121.972;2023-05-07T01:19:07;1.75;;;1.35;;
50781;SDS011;36749;37.428;-121.972;2023-05-07T01:21:36;3.47;;;1.42;;
50781;SDS011;36749;37.428;-121.972;2023-05-07T01:24:03;5.57;;;1.73;;
50781;SDS011;36749;37.428;-121.972;2023-05-07T01:26:30;4.80;;;1.75;;
50781;SDS011;36749;37.428;-121.972;2023-05-07T01:28:56;3.03;;;1.55;;
50781;SDS011;36749;37.428;-121.972;2023-05-07T01:31:23;2.25;;;1.42;;
50781;SDS011;36749;37.428;-121.972;2023-05-07T01:33:50;6.80;;;1.80;;
50781;SDS011;36749;37.428;-121.972;2023-05-07T01:36:17;3.55;;;1.40;;
50781;SDS011;36749;37.428;-121.972;2023-05-07T01:38:44;3.72;;;1.50;;
50781;SDS011;36749;37.428;-121.972;2023-05-07T01:41:11;2.35;;;1.38;;
50781;SDS011;36749;37.428;-121.972;2023-05-07T01:43:39;3.13;;;1.70;;
50781;SDS011;36749;37.428;-121.972;2023-05-07T01:46:06;3.40;;;1.52;;
50781;SDS011;36749;37.428;-121.972;2023-05-07T01:48:35;5.68;;;1.90;;
50781;SDS011;36749;37.428;-121.972;2023-05-07T01:51:01;3.95;;;1.80;;
50781;SDS011;36749;37.428;-121.972;2023-05-07T01:53:27;4.18;;;1.90;;
50781;SDS011;36749;37.428;-121.972;2023-05-07T01:55:54;4.55;;;1.55;;
50781;SDS011;36749;37.428;-121.972;2023-05-07T01:58:20;6.55;;;2.08;;
50781;SDS011;36749;37.428;-121.972;2023-05-07T02:00:46;3.72;;;1.77;;
50781;SDS011;36749;37.428;-121.972;2023-05-07T02:03:12;4.85;;;1.98;;
50781;SDS011;36749;37.428;-121.972;2023-05-07T02:05:39;5.05;;;1.60;;
50781;SDS011;36749;37.428;-121.972;2023-05-07T02:08:05;6.25;;;1.70;;
50781;SDS011;36749;37.428;-121.972;2023-05-07T02:10:31;2.20;;;1.67;;
50781;SDS011;36749;37.428;-121.972;2023-05-07T02:12:57;6.68;;;1.85;;
50781;SDS011;36749;37.428;-121.972;2023-05-07T02:15:24;3.80;;;1.70;;
50781;SDS011;36749;37.428;-121.972;2023-05-07T02:18:02;5.20;;;1.50;;
50781;SDS011;36749;37.428;-121.972;2023-05-07T02:20:34;5.50;;;1.73;;
50781;SDS011;36749;37.428;-121.972;2023-05-07T02:23:00;5.13;;;1.80;;
50781;SDS011;36749;37.428;-121.972;2023-05-07T02:25:26;5.70;;;2.00;;
50781;SDS011;36749;37.428;-121.972;2023-05-07T02:27:53;4.22;;;1.90;;
50781;SDS011;36749;37.428;-121.972;2023-05-07T02:30:19;4.18;;;1.77;;
50781;SDS011;36749;37.428;-121.972;2023-05-07T02:32:46;4.50;;;1.80;;
50781;SDS011;36749;37.428;-121.972;2023-05-07T02:35:12;4.82;;;1.50;;
50781;SDS011;36749;37.428;-121.972;2023-05-07T02:37:38;8.10;;;1.90;;
50781;SDS011;36749;37.428;-121.972;2023-05-07T02:40:05;4.03;;;1.88;;
50781;SDS011;36749;37.428;-121.972;2023-05-07T02:42:31;4.22;;;1.85;;
50781;SDS011;36749;37.428;-121.972;2023-05-07T02:44:58;3.38;;;1.58;;
50781;SDS011;36749;37.428;-121.972;2023-05-07T02:47:24;2.72;;;1.50;;
50781;SDS011;36749;37.428;-121.972;2023-05-07T02:49:52;3.92;;;1.70;;
50781;SDS011;36749;37.428;-121.972;2023-05-07T02:52:19;4.50;;;1.98;;
50781;SDS011;36749;37.428;-121.972;2023-05-07T02:54:45;4.00;;;1.75;;
50781;SDS011;36749;37.428;-121.972;2023-05-07T02:57:11;8.02;;;1.90;;
50781;SDS011;36749;37.428;-121.972;2023-05-07T02:59:37;4.70;;;2.00;;
50781;SDS011;36749;37.428;-121.972;2023-05-07T03:02:04;5.55;;;2.10;;
50781;SDS011;36749;37.428;-121.972;2023-05-07T03:04:30;7.00;;;1.88;;
50781;SDS011;36749;37.428;-121.972;2023-05-07T03:06:56;2.78;;;1.67;;
50781;SDS011;36749;37.428;-121.972;2023-05-07T03:09:23;4.00;;;2.00;;
50781;SDS011;36749;37.428;-121.972;2023-05-07T03:11:49;5.88;;;2.58;;
50781;SDS011;36749;37.428;-121.972;2023-05-07T03:14:15;8.70;;;2.13;;
50781;SDS011;36749;37.428;-121.972;2023-05-07T03:16:41;6.07;;;1.85;;
50781;SDS011;36749;37.428;-121.972;2023-05-07T03:19:07;4.35;;;1.90;;
50781;SDS011;36749;37.428;-121.972;2023-05-07T03:21:34;5.07;;;2.03;;
50781;SDS011;36749;37.428;-121.972;2023-05-07T03:24:00;7.60;;;2.30;;
50781;SDS011;36749;37.428;-121.972;2023-05-07T03:26:26;7.15;;;2.17;;
50781;SDS011;36749;37.428;-121.972;2023-05-07T03:28:52;4.35;;;2.00;;
50781;SDS011;36749;37.428;-121.972;2023-05-07T03:31:19;7.03;;;2.17;;
50781;SDS011;36749;37.428;-121.972;2023-05-07T03:33:52;3.92;;;1.88;;
50781;SDS011;36749;37.428;-121.972;2023-05-07T03:38:47;6.28;;;2.30;;
50781;SDS011;36749;37.428;-121.972;2023-05-07T03:41:13;5.63;;;2.25;;
50781;SDS011;36749;37.428;-121.972;2023-05-07T03:43:40;4.60;;;2.30;;
50781;SDS011;36749;37.428;-121.972;2023-05-07T03:46:06;7.28;;;2.40;;
50781;SDS011;36749;37.428;-121.972;2023-05-07T03:48:32;8.82;;;2.38;;
50781;SDS011;36749;37.428;-121.972;2023-05-07T03:50:58;7.70;;;2.60;;
50781;SDS011;36749;37.428;-121.972;2023-05-07T03:53:25;7.10;;;2.00;;
50781;SDS011;36749;37.428;-121.972;2023-05-07T03:55:51;5.40;;;2.47;;
50781;SDS011;36749;37.428;-121.972;2023-05-07T03:58:17;6.05;;;2.10;;
50781;SDS011;36749;37.428;-121.972;2023-05-07T04:00:44;5.22;;;2.00;;
50781;SDS011;36749;37.428;-121.972;2023-05-07T04:03:11;6.70;;;2.30;;
50781;SDS011;36749;37.428;-121.972;2023-05-07T04:05:37;8.77;;;2.65;;
50781;SDS011;36749;37.428;-121.972;2023-05-07T04:08:03;7.55;;;2.30;;
50781;SDS011;36749;37.428;-121.972;2023-05-07T04:10:30;7.70;;;2.70;;
50781;SDS011;36749;37.428;-121.972;2023-05-07T04:12:56;7.63;;;2.88;;
50781;SDS011;36749;37.428;-121.972;2023-05-07T04:15:23;6.40;;;2.85;;
50781;SDS011;36749;37.428;-121.972;2023-05-07T04:17:49;5.45;;;2.38;;
50781;SDS011;36749;37.428;-121.972;2023-05-07T04:20:16;6.80;;;2.38;;
50781;SDS011;36749;37.428;-121.972;2023-05-07T04:22:42;7.90;;;2.53;;
50781;SDS011;36749;37.428;-121.972;2023-05-07T04:25:09;8.15;;;2.88;;
50781;SDS011;36749;37.428;-121.972;2023-05-07T04:27:41;5.10;;;2.28;;
50781;SDS011;36749;37.428;-121.972;2023-05-07T04:30:08;4.00;;;2.20;;
50781;SDS011;36749;37.428;-121.972;2023-05-07T04:32:34;6.40;;;2.45;;
50781;SDS011;36749;37.428;-121.972;2023-05-07T04:35:02;5.15;;;2.65;;
50781;SDS011;36749;37.428;-121.972;2023-05-07T04:37:29;5.35;;;2.30;;
50781;SDS011;36749;37.428;-121.972;2023-05-07T04:39:57;4.80;;;2.40;;
50781;SDS011;36749;37.428;-121.972;2023-05-07T04:42:23;5.28;;;2.50;;
50781;SDS011;36749;37.428;-121.972;2023-05-07T04:44:52;7.45;;;2.40;;
50781;SDS011;36749;37.428;-121.972;2023-05-07T04:47:18;6.43;;;2.42;;
50781;SDS011;36749;37.428;-121.972;2023-05-07T04:49:45;13.20;;;2.65;;
50781;SDS011;36749;37.428;-121.972;2023-05-07T04:52:11;8.57;;;2.50;;
50781;SDS011;36749;37.428;-121.972;2023-05-07T04:54:37;9.02;;;2.67;;
50781;SDS011;36749;37.428;-121.972;2023-05-07T04:57:03;9.68;;;2.60;;
50781;SDS011;36749;37.428;-121.972;2023-05-07T04:59:30;4.60;;;2.70;;
50781;SDS011;36749;37.428;-121.972;2023-05-07T05:01:56;6.57;;;2.67;;
50781;SDS011;36749;37.428;-121.972;2023-05-07T05:04:22;9.48;;;3.00;;
50781;SDS011;36749;37.428;-121.972;2023-05-07T05:06:49;7.03;;;2.90;;
50781;SDS011;36749;37.428;-121.972;2023-05-07T05:09:15;4.35;;;2.72;;
50781;SDS011;36749;37.428;-121.972;2023-05-07T05:11:41;4.97;;;2.53;;
50781;SDS011;36749;37.428;-121.972;2023-05-07T05:14:08;7.50;;;2.95;;
50781;SDS011;36749;37.428;-121.972;2023-05-07T05:16:34;7.53;;;2.83;;
50781;SDS011;36749;37.428;-121.972;2023-05-07T05:19:01;6.38;;;2.85;;
50781;SDS011;36749;37.428;-121.972;2023-05-07T05:21:28;6.53;;;2.92;;
50781;SDS011;36749;37.428;-121.972;2023-05-07T05:23:54;6.38;;;2.80;;
50781;SDS011;36749;37.428;-121.972;2023-05-07T05:26:20;6.35;;;2.60;;
50781;SDS011;36749;37.428;-121.972;2023-05-07T05:28:47;12.52;;;2.97;;
50781;SDS011;36749;37.428;-121.972;2023-05-07T05:31:13;8.13;;;2.90;;
50781;SDS011;36749;37.428;-121.972;2023-05-07T05:33:39;6.55;;;3.10;;
50781;SDS011;36749;37.428;-121.972;2023-05-07T05:36:05;8.63;;;3.40;;
50781;SDS011;36749;37.428;-121.972;2023-05-07T05:38:32;9.13;;;3.50;;
50781;SDS011;36749;37.428;-121.972;2023-05-07T05:40:58;8.65;;;3.13;;
50781;SDS011;36749;37.428;-121.972;2023-05-07T05:43:25;9.98;;;3.80;;
50781;SDS011;36749;37.428;-121.972;2023-05-07T05:45:51;6.97;;;3.22;;
50781;SDS011;36749;37.428;-121.972;2023-05-07T05:48:17;8.07;;;3.40;;
50781;SDS011;36749;37.428;-121.972;2023-05-07T05:50:43;11.10;;;3.25;;
50781;SDS011;36749;37.428;-121.972;2023-05-07T05:53:09;5.15;;;3.05;;
50781;SDS011;36749;37.428;-121.972;2023-05-07T05:55:35;6.82;;;3.08;;
50781;SDS011;36749;37.428;-121.972;2023-05-07T05:58:02;9.82;;;3.50;;
50781;SDS011;36749;37.428;-121.972;2023-05-07T06:00:28;7.55;;;2.90;;
50781;SDS011;36749;37.428;-121.972;2023-05-07T06:02:55;5.00;;;2.65;;
50781;SDS011;36749;37.428;-121.972;2023-05-07T06:05:21;6.55;;;2.70;;
50781;SDS011;36749;37.428;-121.972;2023-05-07T06:07:47;8.93;;;2.97;;
50781;SDS011;36749;37.428;-121.972;2023-05-07T06:10:13;6.95;;;3.00;;
50781;SDS011;36749;37.428;-121.972;2023-05-07T06:12:40;11.18;;;3.20;;
50781;SDS011;36749;37.428;-121.972;2023-05-07T06:15:06;8.23;;;3.35;;
50781;SDS011;36749;37.428;-121.972;2023-05-07T06:17:32;6.65;;;3.25;;
50781;SDS011;36749;37.428;-121.972;2023-05-07T06:19:59;7.95;;;3.13;;
50781;SDS011;36749;37.428;-121.972;2023-05-07T06:22:25;8.75;;;3.22;;
50781;SDS011;36749;37.428;-121.972;2023-05-07T06:24:51;6.80;;;2.78;;
50781;SDS011;36749;37.428;-121.972;2023-05-07T06:27:17;6.75;;;2.97;;
50781;SDS011;36749;37.428;-121.972;2023-05-07T06:29:44;4.88;;;2.70;;
50781;SDS011;36749;37.428;-121.972;2023-05-07T06:32:10;7.85;;;3.08;;
50781;SDS011;36749;37.428;-121.972;2023-05-07T06:34:38;9.95;;;3.22;;
50781;SDS011;36749;37.428;-121.972;2023-05-07T06:37:05;4.10;;;2.92;;
50781;SDS011;36749;37.428;-121.972;2023-05-07T06:39:31;6.10;;;3.08;;
50781;SDS011;36749;37.428;-121.972;2023-05-07T06:41:58;6.88;;;2.67;;
50781;SDS011;36749;37.428;-121.972;2023-05-07T06:44:25;4.78;;;2.92;;
50781;SDS011;36749;37.428;-121.972;2023-05-07T06:46:51;6.53;;;2.95;;
50781;SDS011;36749;37.428;-121.972;2023-05-07T06:49:17;5.28;;;2.70;;
50781;SDS011;36749;37.428;-121.972;2023-05-07T06:51:43;4.93;;;2.97;;
50781;SDS011;36749;37.428;-121.972;2023-05-07T06:54:10;7.07;;;2.70;;
50781;SDS011;36749;37.428;-121.972;2023-05-07T06:56:36;3.22;;;2.67;;
50781;SDS011;36749;37.428;-121.972;2023-05-07T06:59:02;7.43;;;2.53;;
50781;SDS011;36749;37.428;-121.972;2023-05-07T07:01:29;6.32;;;2.80;;
50781;SDS011;36749;37.428;-121.972;2023-05-07T07:03:55;6.25;;;2.50;;
50781;SDS011;36749;37.428;-121.972;2023-05-07T07:06:21;5.90;;;2.78;;
50781;SDS011;36749;37.428;-121.972;2023-05-07T07:08:48;12.57;;;2.70;;
50781;SDS011;36749;37.428;-121.972;2023-05-07T07:11:14;6.85;;;2.72;;
50781;SDS011;36749;37.428;-121.972;2023-05-07T07:13:41;8.63;;;2.90;;
50781;SDS011;36749;37.428;-121.972;2023-05-07T07:16:08;6.80;;;2.88;;
50781;SDS011;36749;37.428;-121.972;2023-05-07T07:18:34;5.70;;;2.83;;
50781;SDS011;36749;37.428;-121.972;2023-05-07T07:21:01;5.60;;;2.63;;
50781;SDS011;36749;37.428;-121.972;2023-05-07T07:23:27;6.57;;;2.95;;
50781;SDS011;36749;37.428;-121.972;2023-05-07T07:25:53;5.55;;;2.97;;
50781;SDS011;36749;37.428;-121.972;2023-05-07T07:28:20;4.93;;;2.78;;
50781;SDS011;36749;37.428;-121.972;2023-05-07T07:30:47;6.75;;;2.83;;
50781;SDS011;36749;37.428;-121.972;2023-05-07T07:33:13;7.70;;;2.60;;
50781;SDS011;36749;37.428;-121.972;2023-05-07T07:35:39;9.80;;;3.08;;
50781;SDS011;36749;37.428;-121.972;2023-05-07T07:38:06;7.55;;;3.35;;
50781;SDS011;36749;37.428;-121.972;2023-05-07T07:40:34;6.75;;;3.15;;
50781;SDS011;36749;37.428;-121.972;2023-05-07T07:43:00;4.85;;;2.53;;
50781;SDS011;36749;37.428;-121.972;2023-05-07T07:45:27;4.80;;;2.92;;
50781;SDS011;36749;37.428;-121.972;2023-05-07T07:47:53;7.55;;;2.92;;
50781;SDS011;36749;37.428;-121.972;2023-05-07T07:50:19;5.50;;;2.83;;
50781;SDS011;36749;37.428;-121.972;2023-05-07T07:52:45;5.40;;;2.28;;
50781;SDS011;36749;37.428;-121.972;2023-05-07T07:55:12;6.43;;;3.05;;
50781;SDS011;36749;37.428;-121.972;2023-05-07T07:57:39;5.82;;;3.08;;
50781;SDS011;36749;37.428;-121.972;2023-05-07T08:00:05;7.95;;;3.03;;
50781;SDS011;36749;37.428;-121.972;2023-05-07T08:02:32;8.18;;;2.80;;
50781;SDS011;36749;37.428;-121.972;2023-05-07T08:04:58;7.32;;;2.72;;
50781;SDS011;36749;37.428;-121.972;2023-05-07T08:07:24;7.55;;;2.72;;
50781;SDS011;36749;37.428;-121.972;2023-05-07T08:09:50;5.32;;;2.95;;
50781;SDS011;36749;37.428;-121.972;2023-05-07T08:12:17;9.32;;;2.83;;
50781;SDS011;36749;37.428;-121.972;2023-05-07T08:14:43;7.35;;;2.63;;
50781;SDS011;36749;37.428;-121.972;2023-05-07T08:17:09;6.13;;;3.13;;
50781;SDS011;36749;37.428;-121.972;2023-05-07T08:19:36;6.50;;;2.70;;
50781;SDS011;36749;37.428;-121.972;2023-05-07T08:22:02;4.00;;;2.63;;
50781;SDS011;36749;37.428;-121.972;2023-05-07T08:24:30;3.80;;;2.88;;
50781;SDS011;36749;37.428;-121.972;2023-05-07T08:26:56;5.60;;;2.67;;
50781;SDS011;36749;37.428;-121.972;2023-05-07T08:29:23;7.07;;;2.55;;
50781;SDS011;36749;37.428;-121.972;2023-05-07T08:31:49;6.32;;;2.95;;
50781;SDS011;36749;37.428;-121.972;2023-05-07T08:34:15;8.98;;;3.38;;
50781;SDS011;36749;37.428;-121.972;2023-05-07T08:36:41;6.03;;;2.80;;
50781;SDS011;36749;37.428;-121.972;2023-05-07T08:39:08;4.57;;;2.53;;
50781;SDS011;36749;37.428;-121.972;2023-05-07T08:41:34;7.18;;;2.78;;
50781;SDS011;36749;37.428;-121.972;2023-05-07T08:44:00;4.65;;;2.63;;
50781;SDS011;36749;37.428;-121.972;2023-05-07T08:46:29;4.28;;;2.72;;
50781;SDS011;36749;37.428;-121.972;2023-05-07T08:48:57;6.85;;;3.28;;
50781;SDS011;36749;37.428;-121.972;2023-05-07T08:51:23;3.72;;;2.50;;
50781;SDS011;36749;37.428;-121.972;2023-05-07T08:53:49;8.88;;;3.00;;
50781;SDS011;36749;37.428;-121.972;2023-05-07T08:56:16;5.90;;;3.17;;
50781;SDS011;36749;37.428;-121.972;2023-05-07T08:58:43;6.68;;;2.40;;
50781;SDS011;36749;37.428;-121.972;2023-05-07T09:01:12;7.20;;;2.95;;
50781;SDS011;36749;37.428;-121.972;2023-05-07T09:03:39;8.60;;;2.53;;
50781;SDS011;36749;37.428;-121.972;2023-05-07T09:06:06;4.57;;;2.72;;
50781;SDS011;36749;37.428;-121.972;2023-05-07T09:08:33;6.53;;;2.40;;
50781;SDS011;36749;37.428;-121.972;2023-05-07T09:10:59;8.25;;;2.63;;
50781;SDS011;36749;37.428;-121.972;2023-05-07T09:13:27;5.60;;;2.97;;
50781;SDS011;36749;37.428;-121.972;2023-05-07T09:15:53;6.18;;;2.40;;
50781;SDS011;36749;37.428;-121.972;2023-05-07T09:18:20;4.30;;;2.90;;
50781;SDS011;36749;37.428;-121.972;2023-05-07T09:20:46;9.07;;;2.88;;
50781;SDS011;36749;37.428;-121.972;2023-05-07T09:23:13;10.73;;;2.85;;
50781;SDS011;36749;37.428;-121.972;2023-05-07T09:25:40;2.72;;;2.40;;
50781;SDS011;36749;37.428;-121.972;2023-05-07T09:28:06;8.45;;;2.78;;
50781;SDS011;36749;37.428;-121.972;2023-05-07T09:30:33;10.48;;;2.70;;
50781;SDS011;36749;37.428;-121.972;2023-05-07T09:33:00;9.82;;;2.72;;
50781;SDS011;36749;37.428;-121.972;2023-05-07T09:35:27;5.05;;;2.70;;
50781;SDS011;36749;37.428;-121.972;2023-05-07T09:37:55;12.70;;;3.70;;
50781;SDS011;36749;37.428;-121.972;2023-05-07T09:40:22;8.23;;;3.17;;
50781;SDS011;36749;37.428;-121.972;2023-05-07T09:42:53;9.10;;;3.08;;
50781;SDS011;36749;37.428;-121.972;2023-05-07T09:45:24;7.47;;;2.97;;
50781;SDS011;36749;37.428;-121.972;2023-05-07T09:47:53;6.10;;;2.72;;
50781;SDS011;36749;37.428;-121.972;2023-05-07T09:50:22;7.43;;;2.97;;
50781;SDS011;36749;37.428;-121.972;2023-05-07T09:52:56;6.60;;;3.00;;
50781;SDS011;36749;37.428;-121.972;2023-05-07T09:55:23;9.77;;;3.30;;
50781;SDS011;36749;37.428;-121.972;2023-05-07T09:57:50;10.38;;;3.92;;
50781;SDS011;36749;37.428;-121.972;2023-05-07T10:00:20;6.75;;;3.20;;
50781;SDS011;36749;37.428;-121.972;2023-05-07T10:02:48;14.13;;;4.35;;
50781;SDS011;36749;37.428;-121.972;2023-05-07T10:05:19;6.78;;;3.55;;
50781;SDS011;36749;37.428;-121.972;2023-05-07T10:07:46;10.90;;;3.58;;
50781;SDS011;36749;37.428;-121.972;2023-05-07T10:10:12;13.57;;;3.42;;
50781;SDS011;36749;37.428;-121.972;2023-05-07T10:12:40;6.70;;;3.05;;
50781;SDS011;36749;37.428;-121.972;2023-05-07T10:15:10;7.15;;;3.20;;
50781;SDS011;36749;37.428;-121.972;2023-05-07T10:17:37;7.47;;;3.10;;
50781;SDS011;36749;37.428;-121.972;2023-05-07T10:20:04;7.32;;;3.80;;
50781;SDS011;36749;37.428;-121.972;2023-05-07T10:22:33;9.13;;;3.80;;
50781;SDS011;36749;37.428;-121.972;2023-05-07T10:25:05;7.85;;;3.35;;
50781;SDS011;36749;37.428;-121.972;2023-05-07T10:27:36;10.10;;;3.63;;
50781;SDS011;36749;37.428;-121.972;2023-05-07T10:30:10;9.45;;;3.40;;
50781;SDS011;36749;37.428;-121.972;2023-05-07T10:32:49;10.30;;;4.07;;
50781;SDS011;36749;37.428;-121.972;2023-05-07T10:35:22;9.23;;;3.45;;
50781;SDS011;36749;37.428;-121.972;2023-05-07T10:37:50;10.80;;;3.33;;
50781;SDS011;36749;37.428;-121.972;2023-05-07T10:40:17;8.50;;;3.80;;
50781;SDS011;36749;37.428;-121.972;2023-05-07T10:43:00;8.23;;;3.50;;
50781;SDS011;36749;37.428;-121.972;2023-05-07T10:45:30;8.18;;;3.55;;
50781;SDS011;36749;37.428;-121.972;2023-05-07T10:48:06;11.60;;;4.60;;
50781;SDS011;36749;37.428;-121.972;2023-05-07T10:50:36;13.20;;;4.05;;
50781;SDS011;36749;37.428;-121.972;2023-05-07T10:55:45;8.77;;;3.92;;
50781;SDS011;36749;37.428;-121.972;2023-05-07T11:03:16;6.28;;;3.72;;
50781;SDS011;36749;37.428;-121.972;2023-05-07T11:05:43;10.95;;;4.70;;
50781;SDS011;36749;37.428;-121.972;2023-05-07T11:08:09;11.82;;;4.10;;
50781;SDS011;36749;37.428;-121.972;2023-05-07T11:10:51;12.52;;;4.40;;
50781;SDS011;36749;37.428;-121.972;2023-05-07T11:14:02;7.38;;;4.45;;
50781;SDS011;36749;37.428;-121.972;2023-05-07T11:16:22;11.88;;;4.50;;
50781;SDS011;36749;37.428;-121.972;2023-05-07T11:18:49;9.25;;;4.50;;
50781;SDS011;36749;37.428;-121.972;2023-05-07T11:24:08;11.00;;;4.82;;
50781;SDS011;36749;37.428;-121.972;2023-05-07T11:26:56;9.85;;;4.78;;
50781;SDS011;36749;37.428;-121.972;2023-05-07T11:29:22;10.40;;;4.53;;
50781;SDS011;36749;37.428;-121.972;2023-05-07T11:31:48;9.70;;;4.72;;
50781;SDS011;36749;37.428;-121.972;2023-05-07T11:34:22;10.18;;;4.50;;
50781;SDS011;36749;37.428;-121.972;2023-05-07T11:36:49;11.35;;;4.80;;
50781;SDS011;36749;37.428;-121.972;2023-05-07T11:39:29;9.13;;;4.88;;
50781;SDS011;36749;37.428;-121.972;2023-05-07T11:42:01;11.57;;;4.57;;
50781;SDS011;36749;37.428;-121.972;2023-05-07T11:44:43;9.30;;;4.43;;
50781;SDS011;36749;37.428;-121.972;2023-05-07T11:47:11;13.10;;;4.75;;
50781;SDS011;36749;37.428;-121.972;2023-05-07T11:49:42;13.35;;;4.43;;
50781;SDS011;36749;37.428;-121.972;2023-05-07T11:52:09;12.93;;;4.55;;
50781;SDS011;36749;37.428;-121.972;2023-05-07T11:54:36;10.98;;;4.57;;
50781;SDS011;36749;37.428;-121.972;2023-05-07T11:57:02;11.10;;;4.25;;
50781;SDS011;36749;37.428;-121.972;2023-05-07T11:59:29;9.52;;;4.70;;
50781;SDS011;36749;37.428;-121.972;2023-05-07T12:01:58;14.27;;;5.85;;
50781;SDS011;36749;37.428;-121.972;2023-05-07T12:04:24;10.32;;;4.75;;
50781;SDS011;36749;37.428;-121.972;2023-05-07T12:06:54;9.73;;;4.75;;
50781;SDS011;36749;37.428;-121.972;2023-05-07T12:09:21;14.80;;;4.95;;
50781;SDS011;36749;37.428;-121.972;2023-05-07T12:11:47;9.35;;;4.75;;
50781;SDS011;36749;37.428;-121.972;2023-05-07T12:14:13;12.18;;;5.30;;
50781;SDS011;36749;37.428;-121.972;2023-05-07T12:16:41;11.80;;;5.10;;
50781;SDS011;36749;37.428;-121.972;2023-05-07T12:19:07;16.50;;;6.10;;
50781;SDS011;36749;37.428;-121.972;2023-05-07T12:21:37;11.95;;;4.75;;
50781;SDS011;36749;37.428;-121.972;2023-05-07T12:24:04;10.48;;;4.35;;
50781;SDS011;36749;37.428;-121.972;2023-05-07T12:26:31;14.68;;;5.07;;
50781;SDS011;36749;37.428;-121.972;2023-05-07T12:28:57;11.02;;;4.15;;
50781;SDS011;36749;37.428;-121.972;2023-05-07T12:31:25;13.23;;;4.85;;
50781;SDS011;36749;37.428;-121.972;2023-05-07T12:33:52;16.77;;;5.07;;
50781;SDS011;36749;37.428;-121.972;2023-05-07T12:36:18;11.70;;;4.60;;
50781;SDS011;36749;37.428;-121.972;2023-05-07T12:38:46;10.43;;;5.07;;
50781;SDS011;36749;37.428;-121.972;2023-05-07T12:41:15;11.38;;;4.72;;
50781;SDS011;36749;37.428;-121.972;2023-05-07T12:43:44;13.25;;;4.65;;
50781;SDS011;36749;37.428;-121.972;2023-05-07T12:46:11;11.57;;;5.28;;
50781;SDS011;36749;37.428;-121.972;2023-05-07T12:48:45;12.00;;;4.40;;
50781;SDS011;36749;37.428;-121.972;2023-05-07T12:51:11;14.82;;;5.18;;
50781;SDS011;36749;37.428;-121.972;2023-05-07T12:53:42;14.88;;;4.88;;
50781;SDS011;36749;37.428;-121.972;2023-05-07T12:56:08;16.90;;;6.15;;
50781;SDS011;36749;37.428;-121.972;2023-05-07T12:58:35;13.00;;;5.63;;
50781;SDS011;36749;37.428;-121.972;2023-05-07T13:01:05;11.48;;;4.63;;
50781;SDS011;36749;37.428;-121.972;2023-05-07T13:03:35;11.23;;;4.93;;
50781;SDS011;36749;37.428;-121.972;2023-05-07T13:06:03;10.43;;;4.68;;
50781;SDS011;36749;37.428;-121.972;2023-05-07T13:08:35;11.25;;;4.88;;
50781;SDS011;36749;37.428;-121.972;2023-05-07T13:11:11;9.63;;;4.68;;
50781;SDS011;36749;37.428;-121.972;2023-05-07T13:13:38;10.93;;;5.45;;
50781;SDS011;36749;37.428;-121.972;2023-05-07T13:16:05;8.93;;;4.63;;
50781;SDS011;36749;37.428;-121.972;2023-05-07T13:18:33;11.50;;;4.93;;
50781;SDS011;36749;37.428;-121.972;2023-05-07T13:20:59;9.90;;;5.43;;
50781;SDS011;36749;37.428;-121.972;2023-05-07T13:23:26;11.00;;;5.38;;
50781;SDS011;36749;37.428;-121.972;2023-05-07T13:25:53;9.95;;;4.72;;
50781;SDS011;36749;37.428;-121.972;2023-05-07T13:28:21;10.93;;;5.40;;
50781;SDS011;36749;37.428;-121.972;2023-05-07T13:30:47;15.93;;;5.63;;
50781;SDS011;36749;37.428;-121.972;2023-05-07T13:33:14;14.80;;;5.35;;
50781;SDS011;36749;37.428;-121.972;2023-05-07T13:35:41;10.48;;;4.68;;
50781;SDS011;36749;37.428;-121.972;2023-05-07T13:38:07;8.88;;;4.20;;
50781;SDS011;36749;37.428;-121.972;2023-05-07T13:40:33;11.95;;;5.07;;
50781;SDS011;36749;37.428;-121.972;2023-05-07T13:43:00;14.30;;;4.93;;
50781;SDS011;36749;37.428;-121.972;2023-05-07T13:45:29;11.32;;;5.85;;
50781;SDS011;36749;37.428;-121.972;2023-05-07T13:47:55;13.75;;;5.65;;
50781;SDS011;36749;37.428;-121.972;2023-05-07T13:50:22;12.48;;;5.55;;
50781;SDS011;36749;37.428;-121.972;2023-05-07T13:52:48;11.48;;;5.22;;
50781;SDS011;36749;37.428;-121.972;2023-05-07T13:55:17;11.30;;;4.85;;
50781;SDS011;36749;37.428;-121.972;2023-05-07T13:57:44;12.88;;;5.97;;
50781;SDS011;36749;37.428;-121.972;2023-05-07T14:00:11;15.70;;;6.07;;
50781;SDS011;36749;37.428;-121.972;2023-05-07T14:02:37;11.95;;;5.80;;
50781;SDS011;36749;37.428;-121.972;2023-05-07T14:05:04;12.73;;;5.22;;
50781;SDS011;36749;37.428;-121.972;2023-05-07T14:07:30;14.02;;;6.40;;
50781;SDS011;36749;37.428;-121.972;2023-05-07T14:09:57;14.10;;;5.85;;
50781;SDS011;36749;37.428;-121.972;2023-05-07T14:12:23;13.07;;;5.63;;
50781;SDS011;36749;37.428;-121.972;2023-05-07T14:14:50;12.38;;;6.10;;
50781;SDS011;36749;37.428;-121.972;2023-05-07T14:17:16;13.23;;;6.80;;
50781;SDS011;36749;37.428;-121.972;2023-05-07T14:19:43;16.23;;;6.55;;